sensor_id;sensor_type;location;lat;lon;timestamp;P1;durP1;ratioP1;P2;durP2;ratioP2
42364;SDS011;28498;54.400;18.566;2022-09-21T00:01:20;0.30;;;0.30;;
42364;SDS011;28498;54.400;18.566;2022-09-21T00:04:01;1.35;;;1.25;;
42364;SDS011;28498;54.400;18.566;2022-09-21T00:06:30;0.20;;;0.20;;
42364;SDS011;28498;54.400;18.566;2022-09-21T00:08:58;1.15;;;0.85;;
42364;SDS011;28498;54.400;18.566;2022-09-21T00:11:27;0.40;;;0.40;;
42364;SDS011;28498;54.400;18.566;2022-09-21T00:13:59;0.20;;;0.20;;
42364;SDS011;28498;54.400;18.566;2022-09-21T00:18:57;0.20;;;0.20;;
42364;SDS011;28498;54.400;18.566;2022-09-21T00:21:25;1.33;;;1.25;;
42364;SDS011;28498;54.400;18.566;2022-09-21T00:23:53;0.22;;;0.22;;
42364;SDS011;28498;54.400;18.566;2022-09-21T00:26:21;0.25;;;0.25;;
42364;SDS011;28498;54.400;18.566;2022-09-21T00:28:53;0.88;;;0.52;;
42364;SDS011;28498;54.400;18.566;2022-09-21T00:31:22;0.20;;;0.20;;
42364;SDS011;28498;54.400;18.566;2022-09-21T00:33:50;0.35;;;0.35;;
42364;SDS011;28498;54.400;18.566;2022-09-21T00:36:18;0.40;;;0.40;;
42364;SDS011;28498;54.400;18.566;2022-09-21T00:38:53;0.30;;;0.30;;
42364;SDS011;28498;54.400;18.566;2022-09-21T00:41:23;1.05;;;0.95;;
42364;SDS011;28498;54.400;18.566;2022-09-21T00:47:10;0.20;;;0.20;;
42364;SDS011;28498;54.400;18.566;2022-09-21T00:49:40;0.30;;;0.30;;
42364;SDS011;28498;54.400;18.566;2022-09-21T00:52:11;0.20;;;0.20;;
42364;SDS011;28498;54.400;18.566;2022-09-21T00:54:46;0.38;;;0.38;;
42364;SDS011;28498;54.400;18.566;2022-09-21T00:57:23;0.50;;;0.50;;
42364;SDS011;28498;54.400;18.566;2022-09-21T00:59:53;0.30;;;0.30;;
42364;SDS011;28498;54.400;18.566;2022-09-21T01:02:22;0.20;;;0.20;;
42364;SDS011;28498;54.400;18.566;2022-09-21T01:04:50;0.20;;;0.20;;
42364;SDS011;28498;54.400;18.566;2022-09-21T01:07:22;0.45;;;0.45;;
42364;SDS011;28498;54.400;18.566;2022-09-21T01:09:54;0.45;;;0.45;;
42364;SDS011;28498;54.400;18.566;2022-09-21T01:12:28;0.47;;;0.47;;
42364;SDS011;28498;54.400;18.566;2022-09-21T01:31:52;0.20;;;0.20;;
42364;SDS011;28498;54.400;18.566;2022-09-21T01:34:26;0.63;;;0.63;;
42364;SDS011;28498;54.400;18.566;2022-09-21T01:36:59;0.20;;;0.20;;
42364;SDS011;28498;54.400;18.566;2022-09-21T01:39:30;0.28;;;0.28;;
42364;SDS011;28498;54.400;18.566;2022-09-21T01:42:00;0.20;;;0.20;;
42364;SDS011;28498;54.400;18.566;2022-09-21T01:44:29;0.68;;;0.68;;
42364;SDS011;28498;54.400;18.566;2022-09-21T01:47:01;1.40;;;1.30;;
42364;SDS011;28498;54.400;18.566;2022-09-21T01:49:34;0.20;;;0.20;;
42364;SDS011;28498;54.400;18.566;2022-09-21T01:52:10;0.35;;;0.35;;
42364;SDS011;28498;54.400;18.566;2022-09-21T01:54:44;0.47;;;0.47;;
42364;SDS011;28498;54.400;18.566;2022-09-21T02:02:46;0.20;;;0.20;;
42364;SDS011;28498;54.400;18.566;2022-09-21T02:05:20;0.30;;;0.30;;
42364;SDS011;28498;54.400;18.566;2022-09-21T02:07:49;0.75;;;0.75;;
42364;SDS011;28498;54.400;18.566;2022-09-21T02:10:21;0.47;;;0.47;;
42364;SDS011;28498;54.400;18.566;2022-09-21T02:12:52;0.40;;;0.40;;
42364;SDS011;28498;54.400;18.566;2022-09-21T02:15:23;0.20;;;0.20;;
42364;SDS011;28498;54.400;18.566;2022-09-21T02:20:42;0.28;;;0.28;;
42364;SDS011;28498;54.400;18.566;2022-09-21T02:23:23;0.52;;;0.52;;
42364;SDS011;28498;54.400;18.566;2022-09-21T02:28:47;0.77;;;0.35;;
42364;SDS011;28498;54.400;18.566;2022-09-21T02:31:25;0.30;;;0.30;;
42364;SDS011;28498;54.400;18.566;2022-09-21T02:34:03;0.30;;;0.30;;
42364;SDS011;28498;54.400;18.566;2022-09-21T02:39:17;0.30;;;0.30;;
42364;SDS011;28498;54.400;18.566;2022-09-21T02:42:00;0.30;;;0.30;;
42364;SDS011;28498;54.400;18.566;2022-09-21T02:44:31;0.30;;;0.30;;
42364;SDS011;28498;54.400;18.566;2022-09-21T02:49:47;0.30;;;0.30;;
42364;SDS011;28498;54.400;18.566;2022-09-21T02:52:18;0.20;;;0.20;;
42364;SDS011;28498;54.400;18.566;2022-09-21T02:54:47;0.35;;;0.35;;
42364;SDS011;28498;54.400;18.566;2022-09-21T02:57:17;0.22;;;0.22;;
42364;SDS011;28498;54.400;18.566;2022-09-21T02:59:47;0.95;;;0.40;;
42364;SDS011;28498;54.400;18.566;2022-09-21T03:02:15;0.30;;;0.30;;
42364;SDS011;28498;54.400;18.566;2022-09-21T03:04:42;0.30;;;0.30;;
42364;SDS011;28498;54.400;18.566;2022-09-21T03:07:15;0.20;;;0.20;;
42364;SDS011;28498;54.400;18.566;2022-09-21T03:09:43;0.20;;;0.20;;
42364;SDS011;28498;54.400;18.566;2022-09-21T03:12:10;0.20;;;0.20;;
42364;SDS011;28498;54.400;18.566;2022-09-21T03:14:37;0.50;;;0.50;;
42364;SDS011;28498;54.400;18.566;2022-09-21T03:17:04;0.30;;;0.30;;
42364;SDS011;28498;54.400;18.566;2022-09-21T03:19:31;0.30;;;0.30;;
42364;SDS011;28498;54.400;18.566;2022-09-21T03:21:58;0.30;;;0.30;;
42364;SDS011;28498;54.400;18.566;2022-09-21T03:24:25;0.25;;;0.25;;
42364;SDS011;28498;54.400;18.566;2022-09-21T03:27:17;0.30;;;0.30;;
42364;SDS011;28498;54.400;18.566;2022-09-21T03:29:45;0.20;;;0.20;;
42364;SDS011;28498;54.400;18.566;2022-09-21T03:32:12;0.35;;;0.35;;
42364;SDS011;28498;54.400;18.566;2022-09-21T03:34:39;3.15;;;0.93;;
42364;SDS011;28498;54.400;18.566;2022-09-21T03:37:07;2.97;;;0.95;;
42364;SDS011;28498;54.400;18.566;2022-09-21T03:39:35;2.10;;;0.85;;
42364;SDS011;28498;54.400;18.566;2022-09-21T03:42:02;4.93;;;1.13;;
42364;SDS011;28498;54.400;18.566;2022-09-21T03:44:29;4.28;;;1.25;;
42364;SDS011;28498;54.400;18.566;2022-09-21T03:46:56;4.32;;;1.13;;
42364;SDS011;28498;54.400;18.566;2022-09-21T03:49:23;3.97;;;1.10;;
42364;SDS011;28498;54.400;18.566;2022-09-21T03:51:50;2.20;;;0.90;;
42364;SDS011;28498;54.400;18.566;2022-09-21T03:54:17;3.78;;;1.00;;
42364;SDS011;28498;54.400;18.566;2022-09-21T03:56:44;3.75;;;1.00;;
42364;SDS011;28498;54.400;18.566;2022-09-21T03:59:11;3.80;;;1.58;;
42364;SDS011;28498;54.400;18.566;2022-09-21T04:01:39;3.22;;;1.50;;
42364;SDS011;28498;54.400;18.566;2022-09-21T04:04:07;3.70;;;1.00;;
42364;SDS011;28498;54.400;18.566;2022-09-21T04:06:35;4.28;;;1.10;;
42364;SDS011;28498;54.400;18.566;2022-09-21T04:09:02;2.95;;;1.23;;
42364;SDS011;28498;54.400;18.566;2022-09-21T04:11:29;4.22;;;1.30;;
42364;SDS011;28498;54.400;18.566;2022-09-21T04:13:58;4.82;;;0.90;;
42364;SDS011;28498;54.400;18.566;2022-09-21T04:16:25;4.43;;;1.35;;
42364;SDS011;28498;54.400;18.566;2022-09-21T04:18:53;3.55;;;1.27;;
42364;SDS011;28498;54.400;18.566;2022-09-21T04:21:20;3.03;;;1.63;;
42364;SDS011;28498;54.400;18.566;2022-09-21T04:23:48;3.20;;;1.52;;
42364;SDS011;28498;54.400;18.566;2022-09-21T04:26:22;4.38;;;1.65;;
42364;SDS011;28498;54.400;18.566;2022-09-21T04:28:52;4.25;;;1.50;;
42364;SDS011;28498;54.400;18.566;2022-09-21T04:31:21;11.18;;;1.88;;
42364;SDS011;28498;54.400;18.566;2022-09-21T04:33:49;4.15;;;1.35;;
42364;SDS011;28498;54.400;18.566;2022-09-21T04:36:17;3.40;;;1.52;;
42364;SDS011;28498;54.400;18.566;2022-09-21T04:38:45;3.78;;;1.63;;
42364;SDS011;28498;54.400;18.566;2022-09-21T04:41:12;5.97;;;1.52;;
42364;SDS011;28498;54.400;18.566;2022-09-21T04:43:43;3.08;;;1.23;;
42364;SDS011;28498;54.400;18.566;2022-09-21T04:46:11;4.32;;;1.25;;
42364;SDS011;28498;54.400;18.566;2022-09-21T04:48:40;2.45;;;1.10;;
42364;SDS011;28498;54.400;18.566;2022-09-21T04:51:08;4.57;;;1.40;;
42364;SDS011;28498;54.400;18.566;2022-09-21T04:53:37;4.95;;;1.50;;
42364;SDS011;28498;54.400;18.566;2022-09-21T04:56:05;8.90;;;1.33;;
42364;SDS011;28498;54.400;18.566;2022-09-21T04:58:33;2.53;;;1.13;;
42364;SDS011;28498;54.400;18.566;2022-09-21T05:01:00;3.60;;;1.10;;
42364;SDS011;28498;54.400;18.566;2022-09-21T05:03:29;4.72;;;1.08;;
42364;SDS011;28498;54.400;18.566;2022-09-21T05:05:57;2.97;;;1.40;;
42364;SDS011;28498;54.400;18.566;2022-09-21T05:08:24;3.53;;;1.30;;
42364;SDS011;28498;54.400;18.566;2022-09-21T05:11:15;5.43;;;1.20;;
42364;SDS011;28498;54.400;18.566;2022-09-21T05:13:46;4.35;;;1.70;;
42364;SDS011;28498;54.400;18.566;2022-09-21T05:16:14;4.47;;;1.27;;
42364;SDS011;28498;54.400;18.566;2022-09-21T05:18:42;3.83;;;1.00;;
42364;SDS011;28498;54.400;18.566;2022-09-21T05:21:12;4.07;;;1.33;;
42364;SDS011;28498;54.400;18.566;2022-09-21T05:23:40;5.75;;;1.38;;
42364;SDS011;28498;54.400;18.566;2022-09-21T05:26:07;4.22;;;1.33;;
42364;SDS011;28498;54.400;18.566;2022-09-21T05:28:34;4.18;;;1.23;;
42364;SDS011;28498;54.400;18.566;2022-09-21T05:31:17;4.63;;;1.65;;
42364;SDS011;28498;54.400;18.566;2022-09-21T05:34:11;3.85;;;1.50;;
42364;SDS011;28498;54.400;18.566;2022-09-21T05:37:06;2.90;;;1.35;;
42364;SDS011;28498;54.400;18.566;2022-09-21T05:39:43;3.08;;;1.50;;
42364;SDS011;28498;54.400;18.566;2022-09-21T05:42:11;4.07;;;1.40;;
42364;SDS011;28498;54.400;18.566;2022-09-21T05:44:38;3.15;;;1.30;;
42364;SDS011;28498;54.400;18.566;2022-09-21T05:58:27;4.63;;;1.52;;
42364;SDS011;28498;54.400;18.566;2022-09-21T06:01:18;4.78;;;1.20;;
42364;SDS011;28498;54.400;18.566;2022-09-21T06:03:53;6.05;;;1.45;;
42364;SDS011;28498;54.400;18.566;2022-09-21T06:06:22;4.15;;;1.58;;
42364;SDS011;28498;54.400;18.566;2022-09-21T06:12:30;4.75;;;1.42;;
42364;SDS011;28498;54.400;18.566;2022-09-21T06:14:57;5.85;;;1.52;;
42364;SDS011;28498;54.400;18.566;2022-09-21T06:17:24;2.00;;;1.00;;
42364;SDS011;28498;54.400;18.566;2022-09-21T06:19:52;3.65;;;1.00;;
42364;SDS011;28498;54.400;18.566;2022-09-21T06:22:19;4.07;;;0.90;;
42364;SDS011;28498;54.400;18.566;2022-09-21T06:24:46;3.00;;;0.95;;
42364;SDS011;28498;54.400;18.566;2022-09-21T06:27:13;2.88;;;1.10;;
42364;SDS011;28498;54.400;18.566;2022-09-21T06:29:40;3.80;;;1.40;;
42364;SDS011;28498;54.400;18.566;2022-09-21T06:32:07;3.60;;;1.20;;
42364;SDS011;28498;54.400;18.566;2022-09-21T06:34:34;2.40;;;1.00;;
42364;SDS011;28498;54.400;18.566;2022-09-21T06:37:01;3.17;;;1.02;;
42364;SDS011;28498;54.400;18.566;2022-09-21T06:39:28;9.00;;;1.40;;
42364;SDS011;28498;54.400;18.566;2022-09-21T06:41:55;2.15;;;1.05;;
42364;SDS011;28498;54.400;18.566;2022-09-21T06:44:22;2.03;;;1.17;;
42364;SDS011;28498;54.400;18.566;2022-09-21T06:46:49;3.85;;;1.20;;
42364;SDS011;28498;54.400;18.566;2022-09-21T06:49:16;2.15;;;0.80;;
42364;SDS011;28498;54.400;18.566;2022-09-21T06:51:43;4.00;;;1.00;;
42364;SDS011;28498;54.400;18.566;2022-09-21T06:54:10;3.53;;;1.17;;
42364;SDS011;28498;54.400;18.566;2022-09-21T07:00:30;3.25;;;1.10;;
42364;SDS011;28498;54.400;18.566;2022-09-21T07:02:57;5.43;;;1.50;;
42364;SDS011;28498;54.400;18.566;2022-09-21T07:05:24;4.13;;;1.27;;
42364;SDS011;28498;54.400;18.566;2022-09-21T07:07:57;5.55;;;1.70;;
42364;SDS011;28498;54.400;18.566;2022-09-21T07:10:25;3.15;;;1.42;;
42364;SDS011;28498;54.400;18.566;2022-09-21T07:16:40;4.70;;;1.48;;
42364;SDS011;28498;54.400;18.566;2022-09-21T07:19:07;4.05;;;1.33;;
42364;SDS011;28498;54.400;18.566;2022-09-21T07:21:36;7.95;;;2.22;;
42364;SDS011;28498;54.400;18.566;2022-09-21T07:27:51;3.30;;;1.63;;
42364;SDS011;28498;54.400;18.566;2022-09-21T07:30:18;4.75;;;1.63;;
42364;SDS011;28498;54.400;18.566;2022-09-21T07:32:45;3.53;;;2.05;;
42364;SDS011;28498;54.400;18.566;2022-09-21T07:35:12;3.65;;;1.55;;
42364;SDS011;28498;54.400;18.566;2022-09-21T07:37:39;4.43;;;1.63;;
42364;SDS011;28498;54.400;18.566;2022-09-21T07:40:06;9.80;;;1.80;;
42364;SDS011;28498;54.400;18.566;2022-09-21T07:42:33;3.47;;;1.70;;
42364;SDS011;28498;54.400;18.566;2022-09-21T07:45:00;3.25;;;2.10;;
42364;SDS011;28498;54.400;18.566;2022-09-21T07:47:30;4.57;;;1.40;;
42364;SDS011;28498;54.400;18.566;2022-09-21T07:49:57;6.47;;;1.77;;
42364;SDS011;28498;54.400;18.566;2022-09-21T07:52:24;7.75;;;1.60;;
42364;SDS011;28498;54.400;18.566;2022-09-21T07:54:51;2.20;;;1.10;;
42364;SDS011;28498;54.400;18.566;2022-09-21T07:57:17;5.15;;;1.50;;
42364;SDS011;28498;54.400;18.566;2022-09-21T08:00:03;2.92;;;1.10;;
42364;SDS011;28498;54.400;18.566;2022-09-21T08:02:31;3.45;;;1.10;;
42364;SDS011;28498;54.400;18.566;2022-09-21T08:04:58;4.13;;;1.25;;
42364;SDS011;28498;54.400;18.566;2022-09-21T08:07:25;3.83;;;1.30;;
42364;SDS011;28498;54.400;18.566;2022-09-21T08:09:53;5.90;;;1.40;;
42364;SDS011;28498;54.400;18.566;2022-09-21T08:12:20;6.05;;;1.67;;
42364;SDS011;28498;54.400;18.566;2022-09-21T08:14:47;3.45;;;1.50;;
42364;SDS011;28498;54.400;18.566;2022-09-21T08:17:14;3.50;;;1.17;;
42364;SDS011;28498;54.400;18.566;2022-09-21T08:19:41;3.38;;;1.50;;
42364;SDS011;28498;54.400;18.566;2022-09-21T08:22:08;3.08;;;1.40;;
42364;SDS011;28498;54.400;18.566;2022-09-21T08:24:35;4.60;;;1.10;;
42364;SDS011;28498;54.400;18.566;2022-09-21T08:27:02;3.17;;;1.42;;
42364;SDS011;28498;54.400;18.566;2022-09-21T08:29:30;4.65;;;1.48;;
42364;SDS011;28498;54.400;18.566;2022-09-21T08:31:56;4.65;;;2.08;;
42364;SDS011;28498;54.400;18.566;2022-09-21T08:34:24;3.70;;;1.35;;
42364;SDS011;28498;54.400;18.566;2022-09-21T08:36:51;4.32;;;1.10;;
42364;SDS011;28498;54.400;18.566;2022-09-21T08:39:21;4.85;;;1.33;;
42364;SDS011;28498;54.400;18.566;2022-09-21T08:41:59;3.95;;;1.48;;
42364;SDS011;28498;54.400;18.566;2022-09-21T08:48:24;3.50;;;0.93;;
42364;SDS011;28498;54.400;18.566;2022-09-21T08:53:34;3.05;;;1.10;;
42364;SDS011;28498;54.400;18.566;2022-09-21T08:56:11;1.63;;;0.75;;
42364;SDS011;28498;54.400;18.566;2022-09-21T08:58:38;2.10;;;0.80;;
42364;SDS011;28498;54.400;18.566;2022-09-21T09:01:13;2.72;;;1.35;;
42364;SDS011;28498;54.400;18.566;2022-09-21T09:04:23;2.85;;;0.80;;
42364;SDS011;28498;54.400;18.566;2022-09-21T09:07:41;2.67;;;0.82;;
42364;SDS011;28498;54.400;18.566;2022-09-21T09:10:02;2.60;;;0.73;;
42364;SDS011;28498;54.400;18.566;2022-09-21T09:12:59;3.05;;;0.80;;
42364;SDS011;28498;54.400;18.566;2022-09-21T09:16:15;4.10;;;0.90;;
42364;SDS011;28498;54.400;18.566;2022-09-21T09:21:23;5.18;;;1.48;;
42364;SDS011;28498;54.400;18.566;2022-09-21T09:27:40;2.70;;;0.75;;
42364;SDS011;28498;54.400;18.566;2022-09-21T09:33:04;3.55;;;0.73;;
42364;SDS011;28498;54.400;18.566;2022-09-21T09:41:00;4.65;;;1.00;;
42364;SDS011;28498;54.400;18.566;2022-09-21T09:46:43;2.40;;;0.90;;
42364;SDS011;28498;54.400;18.566;2022-09-21T09:52:27;2.47;;;0.82;;
42364;SDS011;28498;54.400;18.566;2022-09-21T09:54:54;4.43;;;0.85;;
42364;SDS011;28498;54.400;18.566;2022-09-21T09:57:28;4.32;;;0.80;;
42364;SDS011;28498;54.400;18.566;2022-09-21T09:59:58;1.10;;;0.50;;
42364;SDS011;28498;54.400;18.566;2022-09-21T10:02:28;3.65;;;1.60;;
42364;SDS011;28498;54.400;18.566;2022-09-21T10:05:03;3.25;;;0.90;;
42364;SDS011;28498;54.400;18.566;2022-09-21T10:07:41;1.92;;;0.70;;
42364;SDS011;28498;54.400;18.566;2022-09-21T10:13:38;2.30;;;0.90;;
42364;SDS011;28498;54.400;18.566;2022-09-21T10:15:51;2.13;;;0.80;;
42364;SDS011;28498;54.400;18.566;2022-09-21T10:21:07;2.22;;;0.75;;
42364;SDS011;28498;54.400;18.566;2022-09-21T10:23:41;3.80;;;0.93;;
42364;SDS011;28498;54.400;18.566;2022-09-21T10:26:13;2.50;;;0.80;;
42364;SDS011;28498;54.400;18.566;2022-09-21T10:29:00;2.35;;;0.85;;
42364;SDS011;28498;54.400;18.566;2022-09-21T10:37:37;2.08;;;0.88;;
42364;SDS011;28498;54.400;18.566;2022-09-21T10:42:49;3.78;;;1.45;;
42364;SDS011;28498;54.400;18.566;2022-09-21T10:45:20;3.47;;;1.00;;
42364;SDS011;28498;54.400;18.566;2022-09-21T10:47:58;3.35;;;1.05;;
42364;SDS011;28498;54.400;18.566;2022-09-21T10:50:44;4.25;;;1.30;;
42364;SDS011;28498;54.400;18.566;2022-09-21T10:53:18;2.70;;;0.80;;
42364;SDS011;28498;54.400;18.566;2022-09-21T10:55:59;2.97;;;0.90;;
42364;SDS011;28498;54.400;18.566;2022-09-21T11:01:48;2.13;;;0.88;;
42364;SDS011;28498;54.400;18.566;2022-09-21T11:07:14;2.43;;;0.80;;
42364;SDS011;28498;54.400;18.566;2022-09-21T11:10:26;5.43;;;1.08;;
42364;SDS011;28498;54.400;18.566;2022-09-21T11:20:50;4.20;;;1.42;;
42364;SDS011;28498;54.400;18.566;2022-09-21T11:29:04;4.07;;;1.20;;
42364;SDS011;28498;54.400;18.566;2022-09-21T11:32:21;5.75;;;1.40;;
42364;SDS011;28498;54.400;18.566;2022-09-21T11:34:42;5.72;;;2.17;;
42364;SDS011;28498;54.400;18.566;2022-09-21T11:43:09;3.00;;;1.00;;
42364;SDS011;28498;54.400;18.566;2022-09-21T11:46:08;3.85;;;1.20;;
42364;SDS011;28498;54.400;18.566;2022-09-21T11:49:01;5.15;;;1.30;;
42364;SDS011;28498;54.400;18.566;2022-09-21T11:54:31;2.45;;;1.20;;
42364;SDS011;28498;54.400;18.566;2022-09-21T11:57:26;4.45;;;1.10;;
42364;SDS011;28498;54.400;18.566;2022-09-21T12:00:16;4.25;;;1.10;;
42364;SDS011;28498;54.400;18.566;2022-09-21T12:03:05;6.10;;;1.20;;
42364;SDS011;28498;54.400;18.566;2022-09-21T12:14:13;4.57;;;1.00;;
42364;SDS011;28498;54.400;18.566;2022-09-21T12:22:57;4.78;;;0.93;;
42364;SDS011;28498;54.400;18.566;2022-09-21T12:25:32;4.05;;;1.05;;
42364;SDS011;28498;54.400;18.566;2022-09-21T12:30:45;2.25;;;0.93;;
42364;SDS011;28498;54.400;18.566;2022-09-21T12:33:19;2.65;;;0.90;;
42364;SDS011;28498;54.400;18.566;2022-09-21T12:35:49;2.72;;;1.20;;
42364;SDS011;28498;54.400;18.566;2022-09-21T12:38:23;4.82;;;0.95;;
42364;SDS011;28498;54.400;18.566;2022-09-21T12:41:08;2.93;;;1.00;;
42364;SDS011;28498;54.400;18.566;2022-09-21T12:43:54;3.05;;;1.00;;
42364;SDS011;28498;54.400;18.566;2022-09-21T12:46:30;2.45;;;0.90;;
42364;SDS011;28498;54.400;18.566;2022-09-21T12:49:22;2.60;;;1.05;;
42364;SDS011;28498;54.400;18.566;2022-09-21T12:51:56;3.38;;;0.90;;
42364;SDS011;28498;54.400;18.566;2022-09-21T13:00:39;2.38;;;1.05;;
42364;SDS011;28498;54.400;18.566;2022-09-21T13:08:32;2.63;;;0.95;;
42364;SDS011;28498;54.400;18.566;2022-09-21T13:11:04;3.42;;;0.90;;
42364;SDS011;28498;54.400;18.566;2022-09-21T13:16:28;2.97;;;0.90;;
42364;SDS011;28498;54.400;18.566;2022-09-21T13:21:39;5.13;;;1.17;;
42364;SDS011;28498;54.400;18.566;2022-09-21T13:24:21;2.33;;;1.00;;
42364;SDS011;28498;54.400;18.566;2022-09-21T13:26:54;3.22;;;1.05;;
42364;SDS011;28498;54.400;18.566;2022-09-21T13:41:54;6.00;;;1.00;;
42364;SDS011;28498;54.400;18.566;2022-09-21T13:44:38;4.05;;;1.02;;
42364;SDS011;28498;54.400;18.566;2022-09-21T13:47:07;3.47;;;0.70;;
42364;SDS011;28498;54.400;18.566;2022-09-21T13:49:44;5.80;;;1.10;;
42364;SDS011;28498;54.400;18.566;2022-09-21T13:54:50;1.90;;;0.70;;
42364;SDS011;28498;54.400;18.566;2022-09-21T14:00:04;7.55;;;1.27;;
42364;SDS011;28498;54.400;18.566;2022-09-21T14:05:06;1.73;;;0.80;;
42364;SDS011;28498;54.400;18.566;2022-09-21T14:10:06;2.50;;;0.88;;
42364;SDS011;28498;54.400;18.566;2022-09-21T14:12:40;4.28;;;0.80;;
42364;SDS011;28498;54.400;18.566;2022-09-21T14:17:44;2.97;;;0.80;;
42364;SDS011;28498;54.400;18.566;2022-09-21T14:20:33;2.75;;;0.88;;
42364;SDS011;28498;54.400;18.566;2022-09-21T14:23:38;3.53;;;1.42;;
42364;SDS011;28498;54.400;18.566;2022-09-21T14:25:59;4.25;;;1.40;;
42364;SDS011;28498;54.400;18.566;2022-09-21T14:31:00;3.67;;;0.95;;
42364;SDS011;28498;54.400;18.566;2022-09-21T14:33:54;2.35;;;0.90;;
42364;SDS011;28498;54.400;18.566;2022-09-21T14:36:21;3.00;;;1.08;;
42364;SDS011;28498;54.400;18.566;2022-09-21T14:39:14;4.90;;;1.10;;
42364;SDS011;28498;54.400;18.566;2022-09-21T14:41:44;3.30;;;1.00;;
42364;SDS011;28498;54.400;18.566;2022-09-21T14:44:19;4.35;;;0.95;;
42364;SDS011;28498;54.400;18.566;2022-09-21T14:55:07;4.53;;;1.23;;
42364;SDS011;28498;54.400;18.566;2022-09-21T14:57:48;3.53;;;1.10;;
42364;SDS011;28498;54.400;18.566;2022-09-21T15:02:53;2.25;;;1.00;;
42364;SDS011;28498;54.400;18.566;2022-09-21T15:05:48;2.28;;;0.90;;
42364;SDS011;28498;54.400;18.566;2022-09-21T15:11:35;2.25;;;0.90;;
42364;SDS011;28498;54.400;18.566;2022-09-21T15:17:53;3.08;;;1.05;;
42364;SDS011;28498;54.400;18.566;2022-09-21T15:20:26;3.20;;;1.13;;
42364;SDS011;28498;54.400;18.566;2022-09-21T15:22:55;2.78;;;1.00;;
42364;SDS011;28498;54.400;18.566;2022-09-21T15:25:24;2.47;;;0.98;;
42364;SDS011;28498;54.400;18.566;2022-09-21T15:27:55;1.95;;;0.90;;
42364;SDS011;28498;54.400;18.566;2022-09-21T15:30:23;3.83;;;1.23;;
42364;SDS011;28498;54.400;18.566;2022-09-21T15:32:55;3.13;;;1.20;;
42364;SDS011;28498;54.400;18.566;2022-09-21T15:35:28;2.85;;;1.10;;
42364;SDS011;28498;54.400;18.566;2022-09-21T15:37:58;3.92;;;1.60;;
42364;SDS011;28498;54.400;18.566;2022-09-21T15:40:32;4.38;;;1.60;;
42364;SDS011;28498;54.400;18.566;2022-09-21T15:43:02;3.35;;;1.23;;
42364;SDS011;28498;54.400;18.566;2022-09-21T15:48:23;4.13;;;1.40;;
42364;SDS011;28498;54.400;18.566;2022-09-21T15:50:53;5.57;;;1.63;;
42364;SDS011;28498;54.400;18.566;2022-09-21T15:53:25;2.85;;;1.33;;
42364;SDS011;28498;54.400;18.566;2022-09-21T15:55:56;3.13;;;1.40;;
42364;SDS011;28498;54.400;18.566;2022-09-21T15:58:30;3.10;;;1.40;;
42364;SDS011;28498;54.400;18.566;2022-09-21T16:01:09;3.25;;;1.50;;
42364;SDS011;28498;54.400;18.566;2022-09-21T16:03:39;4.72;;;1.40;;
42364;SDS011;28498;54.400;18.566;2022-09-21T16:08:46;2.70;;;1.30;;
42364;SDS011;28498;54.400;18.566;2022-09-21T16:11:15;7.32;;;1.60;;
42364;SDS011;28498;54.400;18.566;2022-09-21T16:13:42;5.22;;;1.95;;
42364;SDS011;28498;54.400;18.566;2022-09-21T16:16:29;3.83;;;1.25;;
42364;SDS011;28498;54.400;18.566;2022-09-21T16:18:56;3.80;;;1.40;;
42364;SDS011;28498;54.400;18.566;2022-09-21T16:21:27;2.92;;;1.13;;
42364;SDS011;28498;54.400;18.566;2022-09-21T16:24:10;4.65;;;1.63;;
42364;SDS011;28498;54.400;18.566;2022-09-21T16:26:56;3.35;;;1.40;;
42364;SDS011;28498;54.400;18.566;2022-09-21T16:29:38;2.75;;;1.30;;
42364;SDS011;28498;54.400;18.566;2022-09-21T16:34:45;4.47;;;1.75;;
42364;SDS011;28498;54.400;18.566;2022-09-21T16:39:54;3.28;;;1.50;;
42364;SDS011;28498;54.400;18.566;2022-09-21T16:42:22;3.95;;;1.60;;
42364;SDS011;28498;54.400;18.566;2022-09-21T16:44:53;4.40;;;1.63;;
42364;SDS011;28498;54.400;18.566;2022-09-21T16:47:21;3.78;;;1.50;;
42364;SDS011;28498;54.400;18.566;2022-09-21T16:49:57;4.80;;;1.60;;
42364;SDS011;28498;54.400;18.566;2022-09-21T16:52:28;3.72;;;1.52;;
42364;SDS011;28498;54.400;18.566;2022-09-21T16:54:56;4.15;;;1.67;;
42364;SDS011;28498;54.400;18.566;2022-09-21T16:57:24;3.95;;;1.95;;
42364;SDS011;28498;54.400;18.566;2022-09-21T16:59:52;4.20;;;1.83;;
42364;SDS011;28498;54.400;18.566;2022-09-21T17:02:19;4.47;;;1.88;;
42364;SDS011;28498;54.400;18.566;2022-09-21T17:04:46;4.28;;;2.13;;
42364;SDS011;28498;54.400;18.566;2022-09-21T17:07:13;4.65;;;2.05;;
42364;SDS011;28498;54.400;18.566;2022-09-21T17:09:43;5.03;;;2.28;;
42364;SDS011;28498;54.400;18.566;2022-09-21T17:12:13;4.63;;;1.90;;
42364;SDS011;28498;54.400;18.566;2022-09-21T17:14:43;4.10;;;2.03;;
42364;SDS011;28498;54.400;18.566;2022-09-21T17:17:21;4.40;;;2.70;;
42364;SDS011;28498;54.400;18.566;2022-09-21T17:19:50;6.18;;;2.40;;
42364;SDS011;28498;54.400;18.566;2022-09-21T17:22:18;4.35;;;1.70;;
42364;SDS011;28498;54.400;18.566;2022-09-21T17:24:47;3.80;;;1.85;;
42364;SDS011;28498;54.400;18.566;2022-09-21T17:27:26;3.88;;;2.00;;
42364;SDS011;28498;54.400;18.566;2022-09-21T17:29:54;4.57;;;1.90;;
42364;SDS011;28498;54.400;18.566;2022-09-21T17:32:22;7.10;;;2.28;;
42364;SDS011;28498;54.400;18.566;2022-09-21T17:34:57;7.47;;;2.72;;
42364;SDS011;28498;54.400;18.566;2022-09-21T17:37:37;4.85;;;2.38;;
42364;SDS011;28498;54.400;18.566;2022-09-21T17:40:04;5.10;;;2.65;;
42364;SDS011;28498;54.400;18.566;2022-09-21T17:42:40;4.40;;;2.40;;
42364;SDS011;28498;54.400;18.566;2022-09-21T17:45:14;4.82;;;2.30;;
42364;SDS011;28498;54.400;18.566;2022-09-21T17:48:01;9.13;;;2.20;;
42364;SDS011;28498;54.400;18.566;2022-09-21T17:50:28;6.10;;;2.65;;
42364;SDS011;28498;54.400;18.566;2022-09-21T17:52:56;4.47;;;2.42;;
42364;SDS011;28498;54.400;18.566;2022-09-21T17:55:49;7.30;;;2.42;;
42364;SDS011;28498;54.400;18.566;2022-09-21T18:03:30;4.70;;;2.40;;
42364;SDS011;28498;54.400;18.566;2022-09-21T18:06:01;6.55;;;2.40;;
42364;SDS011;28498;54.400;18.566;2022-09-21T18:08:29;9.73;;;2.50;;
42364;SDS011;28498;54.400;18.566;2022-09-21T18:13:34;13.25;;;3.42;;
42364;SDS011;28498;54.400;18.566;2022-09-21T18:18:48;4.55;;;2.28;;
42364;SDS011;28498;54.400;18.566;2022-09-21T18:21:23;4.68;;;2.20;;
42364;SDS011;28498;54.400;18.566;2022-09-21T18:26:40;8.77;;;2.80;;
42364;SDS011;28498;54.400;18.566;2022-09-21T18:29:41;5.43;;;2.33;;
42364;SDS011;28498;54.400;18.566;2022-09-21T18:32:23;5.05;;;2.25;;
42364;SDS011;28498;54.400;18.566;2022-09-21T18:41:55;5.45;;;2.53;;
42364;SDS011;28498;54.400;18.566;2022-09-21T18:44:47;8.07;;;2.53;;
42364;SDS011;28498;54.400;18.566;2022-09-21T18:47:21;4.53;;;2.30;;
42364;SDS011;28498;54.400;18.566;2022-09-21T18:50:13;5.28;;;2.10;;
42364;SDS011;28498;54.400;18.566;2022-09-21T18:53:22;5.57;;;2.25;;
42364;SDS011;28498;54.400;18.566;2022-09-21T18:55:57;5.88;;;2.25;;
42364;SDS011;28498;54.400;18.566;2022-09-21T18:58:25;4.43;;;1.98;;
42364;SDS011;28498;54.400;18.566;2022-09-21T19:00:52;4.22;;;1.98;;
42364;SDS011;28498;54.400;18.566;2022-09-21T19:03:19;8.55;;;2.90;;
42364;SDS011;28498;54.400;18.566;2022-09-21T19:05:51;5.75;;;2.40;;
42364;SDS011;28498;54.400;18.566;2022-09-21T19:15:11;5.47;;;2.38;;
42364;SDS011;28498;54.400;18.566;2022-09-21T19:21:08;4.18;;;2.00;;
42364;SDS011;28498;54.400;18.566;2022-09-21T19:29:40;8.05;;;2.50;;